Time;durP1;ratioP1;P1;durP2;ratioP2;P2;SDS_P1;SDS_P2;PMS_P1;PMS_P2;Temp;Humidity;BMP_temperature;BMP_pressure;BME280_temperature;BME280_humidity;BME280_pressure;Samples;Min_cycle;Max_cycle;Signal;HPM_P1;HPM_P2
2022/11/10 00:00:55;;;;;;;15.93;4.40;;;;;;;-142.37;100.00;59669.53;5033339;28;20030;-67
2022/11/10 00:03:21;;;;;;;13.90;3.78;;;;;;;-142.37;100.00;59669.53;5033234;28;20076;-67
2022/11/10 00:05:46;;;;;;;10.02;4.55;;;;;;;-142.37;100.00;59669.53;5033676;28;20063;-66
2022/11/10 00:08:12;;;;;;;16.23;5.05;;;;;;;-142.37;100.00;59669.53;5032185;28;20056;-67
2022/11/10 00:10:57;;;;;;;14.32;4.82;;;;;;;-142.37;100.00;59669.53;5033458;28;20040;-67
2022/11/10 00:13:25;;;;;;;17.08;5.15;;;;;;;-142.37;100.00;59669.53;5031293;28;20040;-66
2022/11/10 00:18:35;;;;;;;9.75;3.40;;;;;;;-142.37;100.00;59669.53;5033431;28;20108;-68
2022/11/10 00:21:05;;;;;;;11.70;3.78;;;;;;;-142.37;100.00;59669.53;5031860;28;20550;-68
2022/11/10 00:23:31;;;;;;;5.45;3.08;;;;;;;-142.37;100.00;59669.53;5031605;28;20135;-68
2022/11/10 00:25:57;;;;;;;17.45;4.25;;;;;;;-142.37;100.00;59669.53;5033041;28;20021;-66
2022/11/10 00:28:23;;;;;;;15.70;3.92;;;;;;;-142.37;100.00;59669.53;5033358;28;20029;-68
2022/11/10 00:30:49;;;;;;;13.60;4.55;;;;;;;-142.37;100.00;59669.53;5033407;28;20037;-67
2022/11/10 00:33:14;;;;;;;12.02;4.20;;;;;;;-142.37;100.00;59669.53;5031490;28;20028;-68
2022/11/10 00:35:40;;;;;;;11.30;4.03;;;;;;;-142.37;100.00;59669.53;5033287;28;20029;-67
2022/11/10 00:38:05;;;;;;;13.85;4.80;;;;;;;-142.37;100.00;59669.53;5031498;28;20025;-68
2022/11/10 00:40:31;;;;;;;9.85;3.55;;;;;;;-142.37;100.00;59669.53;5031414;28;20423;-67
2022/11/10 00:42:59;;;;;;;13.23;4.43;;;;;;;-142.37;100.00;59669.53;5032811;28;20029;-66
2022/11/10 00:45:25;;;;;;;14.02;4.38;;;;;;;-142.37;100.00;59669.53;5031317;28;20064;-67
2022/11/10 00:47:50;;;;;;;8.85;3.78;;;;;;;-142.37;100.00;59669.53;5031602;28;20025;-66
2022/11/10 00:50:16;;;;;;;8.18;3.45;;;;;;;-142.37;100.00;59669.53;5033058;28;20393;-66
2022/11/10 00:52:42;;;;;;;7.80;3.70;;;;;;;-142.37;100.00;59669.53;5031285;28;20041;-68
2022/11/10 00:55:08;;;;;;;15.93;4.53;;;;;;;-142.37;100.00;59669.53;5032276;28;20101;-69
2022/11/10 00:57:33;;;;;;;15.88;5.05;;;;;;;-142.37;100.00;59669.53;5032660;28;20552;-67
2022/11/10 00:59:59;;;;;;;19.25;5.22;;;;;;;-142.37;100.00;59669.53;5032399;28;20034;-67
2022/11/10 01:02:24;;;;;;;12.68;4.43;;;;;;;-142.37;100.00;59669.53;5031233;28;20021;-67
2022/11/10 01:04:50;;;;;;;16.00;5.90;;;;;;;-142.37;100.00;59669.53;5032499;28;20025;-66
2022/11/10 01:07:15;;;;;;;13.95;5.65;;;;;;;-142.37;100.00;59669.53;5030854;28;20057;-68
2022/11/10 01:09:41;;;;;;;19.95;6.10;;;;;;;-142.37;100.00;59669.53;5030978;28;20095;-67
2022/11/10 01:12:06;;;;;;;13.48;5.65;;;;;;;-142.37;100.00;59669.53;5032554;28;20041;-66
2022/11/10 01:14:32;;;;;;;21.08;6.20;;;;;;;-142.37;100.00;59669.53;5032423;28;20386;-68
2022/11/10 01:16:57;;;;;;;14.93;5.60;;;;;;;-142.37;100.00;59669.53;5032599;28;20033;-67
2022/11/10 01:19:23;;;;;;;14.82;4.90;;;;;;;-142.37;100.00;59669.53;5031013;28;20552;-66
2022/11/10 01:21:51;;;;;;;12.63;5.35;;;;;;;-142.37;100.00;59669.53;5032315;28;20555;-67
2022/11/10 01:24:19;;;;;;;11.63;4.95;;;;;;;-142.37;100.00;59669.53;5030204;28;20053;-67
2022/11/10 01:26:45;;;;;;;14.20;4.90;;;;;;;-142.37;100.00;59669.53;5032017;28;20021;-67
2022/11/10 01:29:10;;;;;;;16.52;5.20;;;;;;;-142.37;100.00;59669.53;5030872;28;20063;-68
2022/11/10 01:31:36;;;;;;;14.77;5.70;;;;;;;-142.37;100.00;59669.53;5030694;28;20033;-68
2022/11/10 01:34:01;;;;;;;11.55;6.03;;;;;;;-142.37;100.00;59669.53;5030804;28;20029;-67
2022/11/10 01:36:27;;;;;;;12.13;5.60;;;;;;;-142.37;100.00;59669.53;5030611;28;20026;-66
2022/11/10 01:38:53;;;;;;;17.48;4.75;;;;;;;-142.37;100.00;59669.53;5030717;28;20026;-66
2022/11/10 01:41:19;;;;;;;14.85;5.63;;;;;;;-142.37;100.00;59669.53;5030776;28;20048;-68
2022/11/10 01:43:44;;;;;;;16.48;5.55;;;;;;;-142.37;100.00;59669.53;5032042;28;20113;-68
2022/11/10 01:46:12;;;;;;;10.15;5.80;;;;;;;-142.37;100.00;59669.53;5031922;28;20072;-67
2022/11/10 01:48:45;;;;;;;17.85;6.13;;;;;;;-142.37;100.00;59669.53;5030737;28;20124;-68
2022/11/10 01:51:20;;;;;;;16.83;5.57;;;;;;;-142.37;100.00;59669.53;5031735;28;20044;-67
2022/11/10 01:53:52;;;;;;;15.80;4.75;;;;;;;-142.37;100.00;59669.53;5032017;28;20064;-68
2022/11/10 01:56:19;;;;;;;14.35;4.78;;;;;;;-142.37;100.00;59669.53;5031933;28;20117;-69
2022/11/10 01:58:55;;;;;;;15.82;4.85;;;;;;;-142.37;100.00;59669.53;5031839;28;20038;-67
2022/11/10 02:01:22;;;;;;;19.17;5.35;;;;;;;-142.37;100.00;59669.53;5030507;28;20041;-68
2022/11/10 02:04:04;;;;;;;12.88;4.75;;;;;;;-142.37;100.00;59669.53;5031820;28;20084;-69
2022/11/10 02:06:34;;;;;;;20.00;5.20;;;;;;;-142.37;100.00;59669.53;5031638;28;20398;-69
2022/11/10 02:08:59;;;;;;;17.45;5.38;;;;;;;-142.37;100.00;59669.53;5030370;28;20105;-68
2022/11/10 02:11:27;;;;;;;9.20;4.07;;;;;;;-142.37;100.00;59669.53;5031667;28;20124;-67
2022/11/10 02:13:53;;;;;;;18.48;5.00;;;;;;;-142.37;100.00;59669.53;5031840;28;20033;-68
2022/11/10 02:16:20;;;;;;;13.75;5.35;;;;;;;-142.37;100.00;59669.53;5031613;28;20021;-67
2022/11/10 02:18:47;;;;;;;15.77;5.68;;;;;;;-142.37;100.00;59669.53;5031715;28;20382;-68
2022/11/10 02:21:16;;;;;;;21.95;5.90;;;;;;;-142.37;100.00;59669.53;5031468;28;20033;-68
2022/11/10 02:23:48;;;;;;;16.05;5.00;;;;;;;-142.37;100.00;59669.53;5030406;28;20056;-68
2022/11/10 02:26:18;;;;;;;12.75;5.45;;;;;;;-142.37;100.00;59669.53;5031919;28;20482;-68
2022/11/10 02:28:43;;;;;;;11.90;4.82;;;;;;;-142.37;100.00;59669.53;5032050;28;20040;-68
2022/11/10 02:31:09;;;;;;;13.80;4.88;;;;;;;-142.37;100.00;59669.53;5031413;28;20025;-67
2022/11/10 02:33:35;;;;;;;16.63;5.57;;;;;;;-142.37;100.00;59669.53;5031520;28;20029;-67
2022/11/10 02:36:01;;;;;;;10.70;4.25;;;;;;;-142.37;100.00;59669.53;5032210;28;20033;-67
2022/11/10 02:38:26;;;;;;;13.32;5.30;;;;;;;-142.37;100.00;59669.53;5033914;28;20371;-68
2022/11/10 02:40:52;;;;;;;15.27;5.18;;;;;;;-142.37;100.00;59669.53;5035410;28;20072;-69
2022/11/10 02:43:18;;;;;;;14.48;4.88;;;;;;;-142.37;100.00;59669.53;5034793;28;20040;-66
2022/11/10 02:45:44;;;;;;;11.30;4.38;;;;;;;-142.37;100.00;59669.53;5034914;28;20045;-67
2022/11/10 02:48:13;;;;;;;11.13;3.63;;;;;;;-142.37;100.00;59669.53;5035220;28;20026;-67
2022/11/10 02:50:39;;;;;;;10.13;3.88;;;;;;;-142.37;100.00;59669.53;5034898;28;20492;-68
2022/11/10 02:53:05;;;;;;;17.65;3.83;;;;;;;-142.37;100.00;59669.53;5034703;28;20474;-67
2022/11/10 02:55:31;;;;;;;13.82;4.63;;;;;;;-142.37;100.00;59669.53;5034891;28;20037;-68
2022/11/10 02:57:57;;;;;;;11.65;3.33;;;;;;;-142.37;100.00;59669.53;5034664;28;20025;-68
2022/11/10 03:00:23;;;;;;;14.80;3.78;;;;;;;-142.37;100.00;59669.53;5034701;28;20036;-67
2022/11/10 03:02:55;;;;;;;12.38;3.80;;;;;;;-142.37;100.00;59669.53;5034693;28;20021;-67
2022/11/10 03:05:21;;;;;;;8.30;3.17;;;;;;;-142.37;100.00;59669.53;5034767;28;20033;-68
2022/11/10 03:07:54;;;;;;;11.10;3.65;;;;;;;-142.37;100.00;59669.53;5034577;28;20441;-68
2022/11/10 03:10:20;;;;;;;10.25;3.65;;;;;;;-142.37;100.00;59669.53;5033393;28;20030;-67
2022/11/10 03:12:46;;;;;;;16.15;4.00;;;;;;;-142.37;100.00;59669.53;5033015;28;20095;-68
2022/11/10 03:15:11;;;;;;;12.20;4.55;;;;;;;-142.37;100.00;59669.53;5034722;28;20033;-66
2022/11/10 03:17:37;;;;;;;8.10;4.00;;;;;;;-142.37;100.00;59669.53;5034653;28;20075;-67
2022/11/10 03:20:04;;;;;;;11.05;4.22;;;;;;;-142.37;100.00;59669.53;5034405;28;20034;-68
2022/11/10 03:22:29;;;;;;;19.15;4.45;;;;;;;-142.37;100.00;59669.53;5034368;28;20108;-68
2022/11/10 03:24:55;;;;;;;12.65;3.33;;;;;;;-142.37;100.00;59669.53;5034017;28;20061;-68
2022/11/10 03:27:20;;;;;;;13.82;4.22;;;;;;;-142.37;100.00;59669.53;5032592;28;20041;-67
2022/11/10 03:29:46;;;;;;;10.35;3.53;;;;;;;-142.37;100.00;59669.53;5032993;28;20028;-68
2022/11/10 03:32:11;;;;;;;10.65;3.45;;;;;;;-142.37;100.00;59669.53;5032977;28;20033;-67
2022/11/10 03:34:37;;;;;;;12.77;3.70;;;;;;;-142.37;100.00;59669.53;5034258;28;20025;-67
2022/11/10 03:37:03;;;;;;;10.57;3.75;;;;;;;-142.37;100.00;59669.53;5033882;28;20041;-67
2022/11/10 03:39:28;;;;;;;9.75;3.53;;;;;;;-142.37;100.00;59669.53;5032760;28;20033;-67
2022/11/10 03:41:54;;;;;;;7.55;3.08;;;;;;;-142.37;100.00;59669.53;5032644;28;20033;-68
2022/11/10 03:44:19;;;;;;;11.98;4.00;;;;;;;-142.37;100.00;59669.53;5034261;28;20025;-66
2022/11/10 03:46:45;;;;;;;9.27;4.32;;;;;;;-142.37;100.00;59669.53;5034129;28;20025;-66
2022/11/10 03:49:10;;;;;;;12.15;3.60;;;;;;;-142.37;100.00;59669.53;5031638;28;20037;-68
2022/11/10 03:51:36;;;;;;;7.95;3.50;;;;;;;-142.37;100.00;59669.53;5033691;28;20100;-68
2022/11/10 03:54:02;;;;;;;17.85;4.40;;;;;;;-142.37;100.00;59669.53;5034131;28;20116;-67
2022/11/10 03:56:27;;;;;;;9.38;3.03;;;;;;;-142.37;100.00;59669.53;5033844;28;20033;-67
2022/11/10 03:58:53;;;;;;;7.90;3.22;;;;;;;-142.37;100.00;59669.53;5032435;28;20033;-67
2022/11/10 04:01:18;;;;;;;7.85;3.60;;;;;;;-142.37;100.00;59669.53;5033536;28;20030;-67
2022/11/10 04:03:44;;;;;;;11.68;2.97;;;;;;;-142.37;100.00;59669.53;5033797;28;20067;-67
2022/11/10 04:09:00;;;;;;;9.10;3.00;;;;;;;-142.37;100.00;59669.53;5033564;28;20039;-68
2022/11/10 04:17:02;;;;;;;13.20;2.63;;;;;;;-142.37;100.00;59669.53;5013425;28;20406;-67
2022/11/10 04:19:28;;;;;;;12.95;2.95;;;;;;;-142.37;100.00;59669.53;5033120;28;20040;-67
2022/11/10 04:21:54;;;;;;;11.85;3.22;;;;;;;-142.37;100.00;59669.53;5031991;28;20055;-68
2022/11/10 04:24:20;;;;;;;10.43;2.72;;;;;;;-142.37;100.00;59669.53;5032975;28;20124;-68
2022/11/10 04:26:47;;;;;;;7.95;3.10;;;;;;;-142.37;100.00;59669.53;5031885;28;20040;-67
2022/11/10 04:29:15;;;;;;;10.07;2.45;;;;;;;-142.37;100.00;59669.53;5032835;28;20032;-69
2022/11/10 04:31:42;;;;;;;10.35;2.95;;;;;;;-142.37;100.00;59669.53;5032809;28;20036;-65
2022/11/10 04:34:10;;;;;;;13.25;3.40;;;;;;;-142.37;100.00;59669.53;5031580;28;20040;-67
2022/11/10 04:36:38;;;;;;;11.75;3.00;;;;;;;-142.37;100.00;59669.53;5031701;28;20033;-69
2022/11/10 04:39:05;;;;;;;12.63;2.92;;;;;;;-142.37;100.00;59669.53;5031253;28;20025;-67
2022/11/10 04:41:30;;;;;;;10.95;3.67;;;;;;;-142.37;100.00;59669.53;5032701;28;20069;-68
2022/11/10 04:43:57;;;;;;;12.35;2.88;;;;;;;-142.37;100.00;59669.53;5031655;28;20057;-68
2022/11/10 04:46:30;;;;;;;13.93;3.72;;;;;;;-142.37;100.00;59669.53;5032773;28;20022;-67
2022/11/10 04:48:56;;;;;;;11.52;3.08;;;;;;;-142.37;100.00;59669.53;5031380;28;20179;-67
2022/11/10 04:51:24;;;;;;;11.63;4.00;;;;;;;-142.37;100.00;59669.53;5032909;28;20087;-67
2022/11/10 04:53:50;;;;;;;14.77;4.03;;;;;;;-142.37;100.00;59669.53;5032492;28;20075;-68
2022/11/10 04:56:17;;;;;;;12.82;4.43;;;;;;;-142.37;100.00;59669.53;5032719;28;20029;-68
2022/11/10 04:58:43;;;;;;;12.00;4.65;;;;;;;-142.37;100.00;59669.53;5032258;28;20029;-68
2022/11/10 05:01:14;;;;;;;11.73;3.00;;;;;;;-142.37;100.00;59669.53;5030822;28;20125;-70
2022/11/10 05:03:41;;;;;;;11.55;3.00;;;;;;;-142.37;100.00;59669.53;5032340;28;20059;-68
2022/11/10 05:06:06;;;;;;;9.65;2.92;;;;;;;-142.37;100.00;59669.53;5032304;28;20056;-68
2022/11/10 05:08:32;;;;;;;14.40;4.40;;;;;;;-142.37;100.00;59669.53;5032313;28;20030;-69
2022/11/10 05:10:58;;;;;;;12.75;4.03;;;;;;;-142.37;100.00;59669.53;5030872;28;20033;-69
2022/11/10 05:13:23;;;;;;;12.25;3.40;;;;;;;-142.37;100.00;59669.53;5032032;28;20470;-70
2022/11/10 05:15:50;;;;;;;11.98;3.25;;;;;;;-142.37;100.00;59669.53;5031146;28;20543;-68
2022/11/10 05:18:16;;;;;;;16.27;2.80;;;;;;;-142.37;100.00;59669.53;5032192;28;20029;-69
2022/11/10 05:20:41;;;;;;;9.75;3.30;;;;;;;-142.37;100.00;59669.53;5030998;28;20176;-68
2022/11/10 05:25:51;;;;;;;18.27;4.22;;;;;;;-142.37;100.00;59669.53;5031745;28;20094;-68
2022/11/10 05:28:17;;;;;;;11.57;2.60;;;;;;;-142.37;100.00;59669.53;5032172;28;20029;-69
2022/11/10 05:30:43;;;;;;;10.70;2.97;;;;;;;-142.37;100.00;59669.53;5031698;28;20114;-69
2022/11/10 05:33:09;;;;;;;11.35;3.28;;;;;;;-142.37;100.00;59669.53;5032016;28;20025;-69
2022/11/10 05:35:35;;;;;;;13.93;2.72;;;;;;;-142.37;100.00;59669.53;5030665;28;20026;-69
2022/11/10 05:38:02;;;;;;;7.35;2.50;;;;;;;-142.37;100.00;59669.53;5030282;28;20134;-68
2022/11/10 05:40:28;;;;;;;13.18;3.05;;;;;;;-142.37;100.00;59669.53;5031762;28;20061;-68
2022/11/10 05:42:54;;;;;;;10.10;3.50;;;;;;;-142.37;100.00;59669.53;5031709;28;20526;-69
2022/11/10 05:45:22;;;;;;;13.70;3.13;;;;;;;-142.37;100.00;59669.53;5030621;28;20160;-68
2022/11/10 05:47:48;;;;;;;15.00;3.10;;;;;;;-142.37;100.00;59669.53;5032098;28;20064;-69
2022/11/10 05:50:14;;;;;;;24.20;3.70;;;;;;;-142.37;100.00;59669.53;5031754;28;20033;-69
2022/11/10 05:52:48;;;;;;;18.98;4.13;;;;;;;-142.37;100.00;59669.53;5030234;28;20069;-69
2022/11/10 05:55:17;;;;;;;13.95;3.97;;;;;;;-142.37;100.00;59669.53;5032351;28;20033;-67
2022/11/10 05:57:44;;;;;;;15.45;4.15;;;;;;;-142.37;100.00;59669.53;5032006;28;20037;-70
2022/11/10 06:00:11;;;;;;;15.48;4.10;;;;;;;-142.37;100.00;59669.53;5030110;28;20115;-69
2022/11/10 06:02:37;;;;;;;15.60;6.65;;;;;;;-142.37;100.00;59669.53;5031425;28;20021;-69
2022/11/10 06:05:03;;;;;;;14.23;3.85;;;;;;;-142.37;100.00;59669.53;5029671;28;20461;-70
2022/11/10 06:07:31;;;;;;;9.98;3.47;;;;;;;-142.37;100.00;59669.53;5029770;28;20053;-69
2022/11/10 06:09:57;;;;;;;10.43;3.90;;;;;;;-142.37;100.00;59669.53;5031486;28;20484;-70
2022/11/10 06:12:34;;;;;;;13.15;3.55;;;;;;;-142.37;100.00;59669.53;5033916;28;20091;-70
2022/11/10 06:14:59;;;;;;;13.20;4.00;;;;;;;-142.37;100.00;59669.53;5035149;28;20026;-69
2022/11/10 06:17:25;;;;;;;16.33;4.40;;;;;;;-142.37;100.00;59669.53;5035313;28;20026;-69
2022/11/10 06:19:51;;;;;;;9.70;3.90;;;;;;;-142.37;100.00;59669.53;5033982;28;20484;-69
2022/11/10 06:22:16;;;;;;;14.43;4.85;;;;;;;-142.37;100.00;59669.53;5034506;28;20512;-70
2022/11/10 06:24:42;;;;;;;15.40;4.95;;;;;;;-142.37;100.00;59669.53;5033191;28;20049;-69
2022/11/10 06:27:08;;;;;;;20.23;4.60;;;;;;;-142.37;100.00;59669.53;5035155;28;20048;-70
2022/11/10 06:29:34;;;;;;;15.68;4.68;;;;;;;-142.37;100.00;59669.53;5034921;28;20112;-70
2022/11/10 06:32:00;;;;;;;19.58;5.82;;;;;;;-142.37;100.00;59669.53;5033417;28;20467;-69
2022/11/10 06:34:26;;;;;;;13.30;4.88;;;;;;;-142.37;100.00;59669.53;5034606;28;20037;-69
2022/11/10 06:36:51;;;;;;;16.13;4.65;;;;;;;-142.37;100.00;59669.53;5034781;28;20083;-69
2022/11/10 06:39:17;;;;;;;12.57;4.03;;;;;;;-142.37;100.00;59669.53;5034582;28;20398;-69
2022/11/10 06:41:42;;;;;;;13.93;4.90;;;;;;;-142.37;100.00;59669.53;5034917;28;20470;-68
2022/11/10 06:44:10;;;;;;;19.63;5.70;;;;;;;-142.37;100.00;59669.53;5032699;28;20033;-69
2022/11/10 06:46:36;;;;;;;14.43;5.13;;;;;;;-142.37;100.00;59669.53;5033913;28;20037;-70
2022/11/10 06:49:02;;;;;;;12.73;5.28;;;;;;;-142.37;100.00;59669.53;5033962;28;20033;-70
2022/11/10 06:51:28;;;;;;;16.88;5.50;;;;;;;-142.37;100.00;59669.53;5033796;28;20026;-69
2022/11/10 06:53:54;;;;;;;17.35;6.80;;;;;;;-142.37;100.00;59669.53;5034238;28;20393;-70
2022/11/10 06:56:19;;;;;;;13.80;4.97;;;;;;;-142.37;100.00;59669.53;5032309;28;20033;-69
2022/11/10 06:58:45;;;;;;;26.33;7.90;;;;;;;-142.37;100.00;59669.53;5034006;28;20033;-69
2022/11/10 07:01:11;;;;;;;15.27;5.38;;;;;;;-142.37;100.00;59669.53;5033740;28;20055;-69
2022/11/10 07:03:36;;;;;;;19.23;4.97;;;;;;;-142.37;100.00;59669.53;5032401;28;20084;-70
2022/11/10 07:06:02;;;;;;;16.05;5.63;;;;;;;-142.37;100.00;59669.53;5032197;28;20034;-70
2022/11/10 07:08:28;;;;;;;12.65;5.25;;;;;;;-142.37;100.00;59669.53;5032353;28;20037;-71
2022/11/10 07:10:55;;;;;;;18.02;4.60;;;;;;;-142.37;100.00;59669.53;5032626;28;20035;-70
2022/11/10 07:13:21;;;;;;;25.60;4.95;;;;;;;-142.37;100.00;59669.53;5031901;28;20033;-71
2022/11/10 07:15:46;;;;;;;14.43;4.32;;;;;;;-142.37;100.00;59669.53;5032408;28;20033;-71
2022/11/10 07:18:13;;;;;;;16.23;4.45;;;;;;;-142.37;100.00;59669.53;5033516;28;20077;-70
2022/11/10 07:20:38;;;;;;;13.05;4.72;;;;;;;-142.37;100.00;59669.53;5032851;28;20040;-70
2022/11/10 07:23:06;;;;;;;11.65;4.55;;;;;;;-142.37;100.00;59669.53;5032337;28;20566;-70
2022/11/10 07:25:34;;;;;;;21.40;5.20;;;;;;;-142.37;100.00;59669.53;5033114;28;20456;-71
2022/11/10 07:28:02;;;;;;;14.18;4.57;;;;;;;-142.37;100.00;59669.53;5033457;28;20025;-70
2022/11/10 07:30:30;;;;;;;17.13;5.78;;;;;;;-142.37;100.00;59669.53;5033508;28;20034;-69
2022/11/10 07:33:05;;;;;;;17.02;4.25;;;;;;;-142.37;100.00;59669.53;5031744;28;20179;-70
2022/11/10 07:35:32;;;;;;;12.50;4.30;;;;;;;-142.37;100.00;59669.53;5031888;28;20485;-72
2022/11/10 07:38:01;;;;;;;15.50;5.03;;;;;;;-142.37;100.00;59669.53;5033357;28;20104;-69
2022/11/10 07:40:27;;;;;;;9.80;4.72;;;;;;;-142.37;100.00;59669.53;5033419;28;20041;-70
2022/11/10 07:42:53;;;;;;;12.63;4.00;;;;;;;-142.37;100.00;59669.53;5031855;28;20056;-69
2022/11/10 07:45:18;;;;;;;13.50;4.43;;;;;;;-142.37;100.00;59669.53;5030747;28;20060;-69
2022/11/10 07:47:44;;;;;;;15.30;4.57;;;;;;;-142.37;100.00;59669.53;5032951;28;20025;-69
2022/11/10 07:50:10;;;;;;;11.82;3.97;;;;;;;-142.37;100.00;59669.53;5033004;28;20038;-69
2022/11/10 07:52:36;;;;;;;13.98;4.72;;;;;;;-142.37;100.00;59669.53;5031681;28;20088;-70
2022/11/10 07:55:03;;;;;;;10.57;4.72;;;;;;;-142.37;100.00;59669.53;5031333;28;20430;-71
2022/11/10 07:57:28;;;;;;;8.90;4.50;;;;;;;-142.37;100.00;59669.53;5033132;28;20501;-70
2022/11/10 07:59:54;;;;;;;15.50;4.53;;;;;;;-142.37;100.00;59669.53;5032584;28;20042;-70
2022/11/10 08:02:20;;;;;;;17.30;4.70;;;;;;;-142.37;100.00;59669.53;5032657;28;20036;-69
2022/11/10 08:04:45;;;;;;;16.30;5.05;;;;;;;-142.37;100.00;59669.53;5031545;28;20118;-70
2022/11/10 08:07:11;;;;;;;18.83;4.53;;;;;;;-142.37;100.00;59669.53;5032916;28;20033;-69
2022/11/10 08:09:36;;;;;;;10.65;3.60;;;;;;;-142.37;100.00;59669.53;5032980;28;20033;-70
2022/11/10 08:12:02;;;;;;;12.15;3.55;;;;;;;-142.37;100.00;59669.53;5033089;28;20045;-70
2022/11/10 08:14:28;;;;;;;13.32;3.78;;;;;;;-142.37;100.00;59669.53;5033432;28;20096;-70
2022/11/10 08:16:53;;;;;;;13.80;4.20;;;;;;;-142.37;100.00;59669.53;5032635;28;20113;-69
2022/11/10 08:19:19;;;;;;;13.05;3.70;;;;;;;-142.37;100.00;59669.53;5032825;28;20079;-69
2022/11/10 08:21:45;;;;;;;15.20;4.30;;;;;;;-142.37;100.00;59669.53;5031126;28;20044;-70
2022/11/10 08:24:10;;;;;;;15.13;4.40;;;;;;;-142.37;100.00;59669.53;5064603;28;20061;-68
2022/11/10 08:26:36;;;;;;;14.15;3.88;;;;;;;-142.37;100.00;59669.53;5031497;28;20116;-69
2022/11/10 08:29:02;;;;;;;16.20;4.45;;;;;;;-142.37;100.00;59669.53;5032736;28;20101;-70
2022/11/10 08:31:28;;;;;;;11.57;3.25;;;;;;;-142.37;100.00;59669.53;5031254;28;20120;-69
2022/11/10 08:33:54;;;;;;;12.32;3.28;;;;;;;-142.37;100.00;59669.53;5031962;28;20112;-68
2022/11/10 08:36:19;;;;;;;14.63;3.38;;;;;;;-142.37;100.00;59669.53;5032573;28;20040;-70
2022/11/10 08:38:45;;;;;;;14.82;3.22;;;;;;;-142.37;100.00;59669.53;5032340;28;20029;-70
2022/11/10 08:41:10;;;;;;;12.93;3.40;;;;;;;-142.37;100.00;59669.53;5032066;28;20026;-70
2022/11/10 08:43:36;;;;;;;15.73;3.10;;;;;;;-142.37;100.00;59669.53;5030542;28;20029;-68
2022/11/10 08:46:01;;;;;;;15.30;2.88;;;;;;;-142.37;100.00;59669.53;5030878;28;20029;-69
2022/11/10 08:48:27;;;;;;;15.68;4.60;;;;;;;-142.37;100.00;59669.53;5032442;28;20616;-69
2022/11/10 08:50:53;;;;;;;9.38;3.30;;;;;;;-142.37;100.00;59669.53;5064328;28;20040;-69
2022/11/10 08:53:22;;;;;;;12.45;3.00;;;;;;;-142.37;100.00;59669.53;5031693;28;20124;-69
2022/11/10 08:55:49;;;;;;;15.10;3.10;;;;;;;-142.37;100.00;59669.53;5032329;28;20033;-69
2022/11/10 08:58:17;;;;;;;10.73;2.83;;;;;;;-142.37;100.00;59669.53;5032190;28;20030;-69
2022/11/10 09:00:44;;;;;;;10.52;3.05;;;;;;;-142.37;100.00;59669.53;5032153;28;20470;-69
2022/11/10 09:03:15;;;;;;;13.63;3.65;;;;;;;-142.37;100.00;59669.53;5032018;28;20120;-70
2022/11/10 09:05:42;;;;;;;10.82;2.92;;;;;;;-142.37;100.00;59669.53;5031758;28;20030;-69
2022/11/10 09:08:08;;;;;;;9.43;2.03;;;;;;;-142.37;100.00;59669.53;5032054;28;20083;-68
2022/11/10 09:10:38;;;;;;;15.43;2.55;;;;;;;-142.37;100.00;59669.53;5030632;28;20030;-69
2022/11/10 09:13:05;;;;;;;16.25;3.17;;;;;;;-142.37;100.00;59669.53;5029969;28;20037;-69
2022/11/10 09:15:32;;;;;;;12.35;2.28;;;;;;;-142.37;100.00;59669.53;5031564;28;20036;-68
2022/11/10 09:17:59;;;;;;;10.57;2.80;;;;;;;-142.37;100.00;59669.53;5031714;28;20033;-68
2022/11/10 09:20:26;;;;;;;12.02;2.13;;;;;;;-142.37;100.00;59669.53;5032220;28;20462;-68
2022/11/10 09:22:51;;;;;;;11.07;2.15;;;;;;;-142.37;100.00;59669.53;5030525;28;20033;-71
2022/11/10 09:25:17;;;;;;;13.70;2.38;;;;;;;-142.37;100.00;59669.53;5031974;28;20111;-70
2022/11/10 09:27:42;;;;;;;10.93;2.47;;;;;;;-142.37;100.00;59669.53;5030376;28;20026;-68
2022/11/10 09:30:09;;;;;;;8.35;2.70;;;;;;;-142.37;100.00;59669.53;5031483;28;20528;-69
2022/11/10 09:32:34;;;;;;;9.98;2.63;;;;;;;-142.37;100.00;59669.53;5031820;28;20084;-67
2022/11/10 09:35:01;;;;;;;10.13;2.35;;;;;;;-142.37;100.00;59669.53;5031372;28;20034;-69
2022/11/10 09:37:28;;;;;;;11.57;2.63;;;;;;;-142.37;100.00;59669.53;5030459;28;20398;-68
2022/11/10 09:39:53;;;;;;;12.77;2.80;;;;;;;-142.37;100.00;59669.53;5031792;28;20057;-69
2022/11/10 09:42:33;;;;;;;13.05;2.08;;;;;;;-142.37;100.00;59669.53;5031819;28;20072;-69
2022/11/10 09:45:32;;;;;;;9.38;2.38;;;;;;;-142.37;100.00;59669.53;5030175;28;20537;-68
2022/11/10 09:48:06;;;;;;;11.10;3.72;;;;;;;-142.37;100.00;59669.53;5034385;28;20091;-68
2022/11/10 09:50:55;;;;;;;11.40;2.80;;;;;;;-142.37;100.00;59669.53;5034364;28;20453;-71
2022/11/10 09:53:31;;;;;;;11.05;2.45;;;;;;;-142.37;100.00;59669.53;5029378;28;20493;-68
2022/11/10 09:56:03;;;;;;;11.90;2.67;;;;;;;-142.37;100.00;59669.53;5035902;28;20037;-69
2022/11/10 09:58:40;;;;;;;15.88;4.78;;;;;;;-142.37;100.00;59669.53;5035014;28;20037;-66
2022/11/10 10:01:24;;;;;;;10.57;1.85;;;;;;;-142.37;100.00;59669.53;5035079;28;20034;-69
2022/11/10 10:04:03;;;;;;;7.38;1.35;;;;;;;-142.37;100.00;59669.53;5033769;28;20060;-66
2022/11/10 10:06:44;;;;;;;10.23;2.63;;;;;;;-142.37;100.00;59669.53;5035482;28;20037;-69
2022/11/10 10:09:44;;;;;;;10.38;3.00;;;;;;;-142.37;100.00;59669.53;5033543;28;20041;-66
2022/11/10 10:12:43;;;;;;;14.40;2.92;;;;;;;-142.37;100.00;59669.53;5012328;28;20052;-67
2022/11/10 10:15:53;;;;;;;13.10;2.47;;;;;;;-142.37;100.00;59669.53;5035079;28;20029;-67
2022/11/10 10:18:25;;;;;;;11.48;2.58;;;;;;;-142.37;100.00;59669.53;5033988;28;20044;-66
2022/11/10 10:21:23;;;;;;;12.82;2.88;;;;;;;-142.37;100.00;59669.53;5033862;28;20025;-68
2022/11/10 10:23:51;;;;;;;11.77;2.40;;;;;;;-142.37;100.00;59669.53;5033141;28;20049;-67
2022/11/10 10:26:29;;;;;;;12.23;2.50;;;;;;;-142.37;100.00;59669.53;5035033;28;20068;-67
2022/11/10 10:28:58;;;;;;;7.55;2.53;;;;;;;-142.37;100.00;59669.53;5034902;28;20029;-65
2022/11/10 10:31:30;;;;;;;13.65;2.47;;;;;;;-142.37;100.00;59669.53;5034664;28;20029;-67
2022/11/10 10:33:56;;;;;;;10.40;2.50;;;;;;;-142.37;100.00;59669.53;5034181;28;20033;-67
2022/11/10 10:36:25;;;;;;;13.60;3.22;;;;;;;-142.37;100.00;59669.53;5032584;28;20474;-67
2022/11/10 10:39:04;;;;;;;20.02;3.13;;;;;;;-142.37;100.00;59669.53;5032769;28;20116;-68
2022/11/10 10:41:32;;;;;;;8.88;2.58;;;;;;;-142.37;100.00;59669.53;5034394;28;20030;-66
2022/11/10 10:44:01;;;;;;;12.57;3.17;;;;;;;-142.37;100.00;59669.53;5065883;28;20032;-66
2022/11/10 10:46:30;;;;;;;12.10;2.58;;;;;;;-142.37;100.00;59669.53;5032496;28;20402;-67
2022/11/10 10:49:18;;;;;;;13.00;3.40;;;;;;;-142.37;100.00;59669.53;5034271;28;20037;-69
2022/11/10 10:51:44;;;;;;;11.85;2.90;;;;;;;-142.37;100.00;59669.53;5034072;28;20040;-67
2022/11/10 10:54:24;;;;;;;16.25;2.70;;;;;;;-142.37;100.00;59669.53;5033850;28;20075;-67
2022/11/10 10:57:00;;;;;;;13.75;2.88;;;;;;;-142.37;100.00;59669.53;5032409;28;20505;-68
2022/11/10 10:59:26;;;;;;;10.25;2.15;;;;;;;-142.37;100.00;59669.53;5033394;28;20033;-67
2022/11/10 11:01:53;;;;;;;18.52;3.47;;;;;;;-142.37;100.00;59669.53;5033113;28;20083;-69
2022/11/10 11:04:35;;;;;;;11.43;3.50;;;;;;;-142.37;100.00;59669.53;5033737;28;20068;-68
2022/11/10 11:07:04;;;;;;;11.10;2.28;;;;;;;-142.37;100.00;59669.53;5033782;28;20022;-68
2022/11/10 11:09:40;;;;;;;9.85;1.95;;;;;;;-142.37;100.00;59669.53;5033856;28;20048;-67
2022/11/10 11:12:20;;;;;;;12.95;3.50;;;;;;;-142.37;100.00;59669.53;5033486;28;20026;-68
2022/11/10 11:14:46;;;;;;;10.35;2.10;;;;;;;-142.37;100.00;59669.53;5032193;28;20132;-68
2022/11/10 11:17:13;;;;;;;10.15;1.98;;;;;;;-142.37;100.00;59669.53;5033602;28;20407;-67
2022/11/10 11:19:39;;;;;;;16.30;3.13;;;;;;;-142.37;100.00;59669.53;5034130;28;20039;-67